Time;durP1;ratioP1;P1;durP2;ratioP2;P2;SDS_P1;SDS_P2;PMS_P1;PMS_P2;Temp;Humidity;BMP_temperature;BMP_pressure;BME280_temperature;BME280_humidity;BME280_pressure;Samples;Min_cycle;Max_cycle;Signal;HPM_P1;HPM_P2
2023/04/29 00:02:11;;;;;;;28.02;20.15;;;8.60;93.70;;;;;;5062558;28;20459;-43
2023/04/29 00:04:38;;;;;;;;;;;8.60;93.70;;;;;;5057314;28;20065;-42
2023/04/29 00:07:07;;;;;;;28.08;19.02;;;8.60;93.60;;;;;;5052837;28;19971;-42
2023/04/29 00:09:35;;;;;;;24.13;19.40;;;8.60;93.50;;;;;;5072182;28;20020;-41
2023/04/29 00:12:03;;;;;;;31.67;21.40;;;8.60;93.50;;;;;;5073134;28;20105;-42
2023/04/29 00:14:30;;;;;;;29.73;20.40;;;8.60;93.50;;;;;;5052170;28;20033;-42
2023/04/29 00:16:58;;;;;;;26.42;20.40;;;8.60;93.30;;;;;;5050990;28;20029;-42
2023/04/29 00:19:24;;;;;;;27.67;20.92;;;8.60;93.30;;;;;;5053542;28;20067;-42
2023/04/29 00:21:55;;;;;;;29.90;20.55;;;8.60;93.20;;;;;;5045441;28;20112;-41
2023/04/29 00:24:23;;;;;;;28.00;20.35;;;8.60;93.20;;;;;;5033080;28;20040;-41
2023/04/29 00:26:54;;;;;;;27.60;21.10;;;8.60;93.20;;;;;;5042152;28;20037;-41
2023/04/29 00:29:22;;;;;;;31.40;21.73;;;8.60;93.30;;;;;;5044208;28;20541;-42
2023/04/29 00:31:49;;;;;;;28.65;20.90;;;8.60;93.30;;;;;;5063998;28;20089;-43
2023/04/29 00:34:18;;;;;;;28.52;22.75;;;8.70;93.30;;;;;;5069958;28;20069;-43
2023/04/29 00:36:44;;;;;;;34.90;22.45;;;8.60;93.20;;;;;;5065129;28;20024;-42
2023/04/29 00:39:12;;;;;;;37.15;24.27;;;8.70;93.30;;;;;;5047522;28;20069;-41
2023/04/29 00:41:43;;;;;;;30.42;22.20;;;8.70;93.20;;;;;;5033856;28;20029;-42
2023/04/29 00:44:12;;;;;;;31.77;21.48;;;8.70;93.10;;;;;;5033094;28;20033;-43
2023/04/29 00:46:49;;;;;;;27.65;23.20;;;8.70;93.00;;;;;;5061463;28;20025;-42
2023/04/29 00:49:17;;;;;;;32.30;22.30;;;8.70;93.00;;;;;;5072358;28;20085;-42
2023/04/29 00:51:43;;;;;;;33.83;23.13;;;8.70;93.00;;;;;;5038972;28;20033;-43
2023/04/29 00:54:11;;;;;;;33.90;22.25;;;8.70;93.00;;;;;;5047470;28;20033;-43
2023/04/29 00:56:42;;;;;;;33.10;21.85;;;8.70;93.10;;;;;;5069421;28;20107;-42
2023/04/29 00:59:11;;;;;;;30.65;22.77;;;8.70;93.10;;;;;;5067909;28;20025;-44
2023/04/29 01:01:43;;;;;;;29.23;21.40;;;8.70;93.10;;;;;;5055154;28;20340;-43
2023/04/29 01:04:09;;;;;;;32.28;21.08;;;8.70;93.20;;;;;;5055675;28;20068;-43
2023/04/29 01:07:09;;;;;;;32.55;22.15;;;8.60;93.10;;;;;;5072032;28;20149;-43
2023/04/29 01:10:08;;;;;;;33.92;22.60;;;8.60;93.20;;;;;;5072808;28;20047;-42
2023/04/29 01:13:08;;;;;;;34.30;22.15;;;8.70;93.20;;;;;;5031440;28;20107;-43
2023/04/29 01:16:16;;;;;;;30.50;21.95;;;8.70;93.30;;;;;;5041236;28;20353;-43
2023/04/29 01:18:48;;;;;;;30.27;21.80;;;8.70;93.30;;;;;;5012454;28;20060;-42
2023/04/29 01:21:15;;;;;;;33.58;23.80;;;8.70;93.30;;;;;;5040199;28;20049;-44
2023/04/29 01:23:41;;;;;;;32.40;21.70;;;8.60;93.20;;;;;;5045949;28;20030;-42
2023/04/29 01:26:07;;;;;;;30.73;22.27;;;8.60;93.20;;;;;;5044213;28;20116;-43
2023/04/29 01:28:38;;;;;;;31.08;21.50;;;8.60;93.20;;;;;;5050301;28;20108;-43
2023/04/29 01:31:24;;;;;;;32.58;21.90;;;8.60;93.20;;;;;;5049705;28;20176;-44
2023/04/29 01:34:17;;;;;;;31.45;22.70;;;8.60;93.20;;;;;;5047104;28;20034;-44
2023/04/29 01:36:59;;;;;;;32.72;21.90;;;8.60;93.20;;;;;;5032164;28;20065;-46
2023/04/29 01:39:33;;;;;;;33.80;21.92;;;8.60;93.20;;;;;;5032172;28;20039;-42
2023/04/29 01:42:30;;;;;;;34.63;21.48;;;8.60;93.20;;;;;;5044792;28;20040;-43
2023/04/29 01:44:59;;;;;;;32.28;21.92;;;8.60;93.20;;;;;;5050093;28;20037;-43
2023/04/29 01:47:28;;;;;;;29.90;20.70;;;8.60;93.20;;;;;;5059016;28;20098;-43
2023/04/29 01:49:56;;;;;;;27.30;20.48;;;8.60;93.20;;;;;;5052224;28;20033;-43
2023/04/29 01:52:24;;;;;;;34.92;21.20;;;8.60;93.20;;;;;;5060981;28;20434;-43
2023/04/29 01:54:49;;;;;;;30.95;21.25;;;8.50;93.20;;;;;;5069460;28;20025;-43
2023/04/29 01:57:18;;;;;;;30.23;20.90;;;8.60;93.20;;;;;;5065180;28;20047;-45
2023/04/29 01:59:46;;;;;;;27.63;20.13;;;8.60;93.20;;;;;;5041355;28;20326;-42
2023/04/29 02:02:14;;;;;;;30.17;21.45;;;8.60;93.20;;;;;;5055396;28;20032;-43
2023/04/29 02:04:41;;;;;;;32.95;21.60;;;8.60;93.30;;;;;;5050080;28;20443;-44
2023/04/29 02:07:11;;;;;;;30.05;18.85;;;8.60;93.20;;;;;;5031576;28;20068;-43
2023/04/29 02:09:40;;;;;;;27.75;18.77;;;8.60;93.30;;;;;;5016786;28;20087;-42
2023/04/29 02:12:07;;;;;;;30.80;19.58;;;8.60;93.30;;;;;;5037973;28;20040;-44
2023/04/29 02:14:35;;;;;;;23.55;17.83;;;8.60;93.30;;;;;;5054754;28;20435;-44
2023/04/29 02:17:03;;;;;;;26.83;17.92;;;8.50;93.30;;;;;;5041723;28;20052;-43
2023/04/29 02:19:31;;;;;;;28.42;19.48;;;8.60;93.30;;;;;;5029943;28;20088;-42
2023/04/29 02:22:00;;;;;;;24.13;18.38;;;8.50;93.20;;;;;;5035420;28;20029;-44
2023/04/29 02:24:27;;;;;;;25.08;18.30;;;8.40;93.10;;;;;;5037591;28;20049;-43
2023/04/29 02:26:55;;;;;;;27.20;19.00;;;8.40;93.20;;;;;;5053970;28;20045;-44
2023/04/29 02:29:22;;;;;;;27.13;17.05;;;8.40;93.10;;;;;;5047932;28;20514;-42
2023/04/29 02:31:51;;;;;;;26.92;18.27;;;8.30;93.20;;;;;;5039480;28;20033;-43
2023/04/29 02:34:18;;;;;;;27.60;17.73;;;8.30;93.20;;;;;;5035015;28;20022;-43
2023/04/29 02:36:44;;;;;;;26.33;17.83;;;8.20;93.20;;;;;;5055417;28;20116;-44
2023/04/29 02:39:11;;;;;;;26.27;18.23;;;8.10;93.20;;;;;;5037413;28;20112;-43
2023/04/29 02:41:38;;;;;;;27.92;18.30;;;8.10;93.20;;;;;;5054978;28;20037;-42
2023/04/29 02:44:05;;;;;;;26.33;16.88;;;8.00;93.10;;;;;;5034325;28;20116;-43
2023/04/29 02:46:32;;;;;;;24.88;17.40;;;7.90;93.20;;;;;;5040606;28;20026;-42
2023/04/29 02:49:03;;;;;;;24.85;16.45;;;7.90;93.20;;;;;;5039875;28;20508;-44
2023/04/29 02:51:30;;;;;;;22.33;17.98;;;7.90;93.30;;;;;;5029416;28;20739;-43
2023/04/29 02:53:57;;;;;;;23.83;17.48;;;7.80;93.30;;;;;;5074608;28;20091;-44
2023/04/29 02:56:24;;;;;;;25.10;17.92;;;7.80;93.30;;;;;;5062831;28;20029;-43
2023/04/29 02:58:54;;;;;;;26.63;17.75;;;7.70;93.30;;;;;;5053772;28;20041;-42
2023/04/29 03:01:23;;;;;;;25.42;17.92;;;7.70;93.40;;;;;;5058595;28;20038;-45
2023/04/29 03:03:51;;;;;;;34.00;20.55;;;7.70;93.50;;;;;;5054474;28;20033;-43
2023/04/29 03:06:18;;;;;;;26.77;18.98;;;7.70;93.50;;;;;;5066789;28;20397;-42
2023/04/29 03:08:45;;;;;;;27.73;19.33;;;7.70;93.50;;;;;;5072237;28;20033;-43
2023/04/29 03:11:14;;;;;;;31.27;18.60;;;7.60;93.60;;;;;;5044280;28;20029;-42
2023/04/29 03:13:41;;;;;;;26.35;18.23;;;7.60;93.50;;;;;;5074515;28;20025;-44
2023/04/29 03:16:09;;;;;;;29.52;18.88;;;7.50;93.60;;;;;;5067107;28;20040;-42
2023/04/29 03:18:35;;;;;;;26.60;18.63;;;7.50;93.70;;;;;;5040177;28;20057;-43
2023/04/29 03:21:03;;;;;;;31.35;20.02;;;7.50;93.80;;;;;;5034436;28;20053;-43
2023/04/29 03:23:31;;;;;;;30.27;21.33;;;7.60;93.80;;;;;;5034710;28;20037;-44
2023/04/29 03:26:00;;;;;;;26.30;19.17;;;7.60;93.90;;;;;;5057042;28;20029;-45
2023/04/29 03:28:27;;;;;;;28.20;19.33;;;7.60;93.90;;;;;;5052793;28;20389;-43
2023/04/29 03:30:55;;;;;;;32.30;19.13;;;7.70;94.00;;;;;;5055502;28;20085;-44
2023/04/29 03:33:24;;;;;;;37.65;21.70;;;7.70;94.10;;;;;;5072832;28;20355;-42
2023/04/29 03:35:52;;;;;;;37.10;22.25;;;7.80;94.00;;;;;;5073320;28;20223;-43
2023/04/29 03:38:18;;;;;;;33.55;23.48;;;7.80;94.10;;;;;;5051345;28;20138;-46
2023/04/29 03:40:46;;;;;;;32.15;22.10;;;7.90;94.20;;;;;;5052746;28;20422;-43
2023/04/29 03:43:12;;;;;;;35.22;22.15;;;7.90;94.30;;;;;;5054541;28;20061;-43
2023/04/29 03:45:41;;;;;;;33.17;23.73;;;8.00;94.40;;;;;;5057950;28;20078;-43
2023/04/29 03:48:08;;;;;;;38.30;21.30;;;8.10;94.50;;;;;;5069303;28;20036;-43
2023/04/29 03:50:36;;;;;;;36.58;22.50;;;8.10;94.50;;;;;;5040052;28;20025;-45
2023/04/29 03:53:02;;;;;;;35.67;21.35;;;8.20;94.50;;;;;;5016504;28;20029;-42
2023/04/29 03:55:29;;;;;;;29.13;20.05;;;8.20;94.50;;;;;;5063599;28;20036;-42
2023/04/29 03:57:57;;;;;;;34.30;19.55;;;8.20;94.50;;;;;;5071875;28;20354;-43
2023/04/29 04:00:25;;;;;;;28.33;21.20;;;8.20;94.50;;;;;;5064464;28;20082;-44
2023/04/29 04:02:52;;;;;;;33.42;21.30;;;8.30;94.40;;;;;;5059472;28;20037;-43
2023/04/29 04:05:19;;;;;;;33.25;20.13;;;8.30;94.40;;;;;;5033354;28;20049;-43
2023/04/29 04:07:46;;;;;;;30.65;21.85;;;8.30;94.40;;;;;;5033441;28;20029;-43
2023/04/29 04:10:14;;;;;;;32.58;20.35;;;8.30;94.30;;;;;;5040919;28;20101;-43
2023/04/29 04:12:39;;;;;;;41.28;21.15;;;8.30;94.30;;;;;;5016120;28;20514;-42
2023/04/29 04:15:07;;;;;;;27.42;19.23;;;8.30;94.20;;;;;;5046035;28;20049;-42
2023/04/29 04:17:35;;;;;;;30.55;20.35;;;8.20;94.20;;;;;;5042714;28;20113;-43
2023/04/29 04:20:02;;;;;;;30.23;19.13;;;8.30;94.10;;;;;;5064492;28;20059;-42
2023/04/29 04:22:27;;;;;;;40.33;20.27;;;8.30;94.10;;;;;;5073069;28;20040;-42
2023/04/29 04:24:57;;;;;;;32.55;19.83;;;8.30;94.00;;;;;;5063639;28;20029;-43
2023/04/29 04:27:24;;;;;;;26.92;18.50;;;8.20;94.00;;;;;;5066421;28;20036;-42
2023/04/29 04:29:54;;;;;;;31.10;19.90;;;8.30;93.90;;;;;;5068775;28;20416;-43
2023/04/29 04:32:32;;;;;;;28.35;19.02;;;8.20;93.90;;;;;;5050617;28;20060;-43
2023/04/29 04:34:59;;;;;;;34.38;19.23;;;8.30;93.80;;;;;;5031862;28;20336;-44
2023/04/29 04:37:27;;;;;;;26.80;20.90;;;8.30;93.80;;;;;;5041784;28;20025;-44
2023/04/29 04:39:52;;;;;;;29.48;21.52;;;8.30;93.80;;;;;;5061341;28;20099;-42
2023/04/29 04:42:20;;;;;;;33.28;21.23;;;8.30;93.80;;;;;;5060444;28;20029;-43
2023/04/29 04:44:49;;;;;;;28.77;19.90;;;8.40;93.70;;;;;;5064966;28;20040;-43
2023/04/29 04:47:16;;;;;;;27.63;18.33;;;8.30;93.70;;;;;;5050050;28;20033;-43
2023/04/29 04:49:48;;;;;;;32.90;20.77;;;8.30;93.70;;;;;;5038637;28;20025;-43
2023/04/29 04:52:15;;;;;;;26.38;18.42;;;8.30;93.60;;;;;;5022590;28;20025;-43
2023/04/29 04:54:45;;;;;;;27.23;17.08;;;8.40;93.50;;;;;;5068697;28;20145;-42
2023/04/29 04:57:12;;;;;;;26.92;16.83;;;8.40;93.50;;;;;;5047504;28;20060;-45
2023/04/29 04:59:42;;;;;;;27.58;18.77;;;8.40;93.40;;;;;;5016966;28;20116;-46
2023/04/29 05:02:10;;;;;;;23.63;18.13;;;8.40;93.40;;;;;;5045232;28;20031;-43
2023/04/29 05:04:37;;;;;;;24.80;17.65;;;8.40;93.30;;;;;;5067049;28;20051;-43
2023/04/29 05:07:05;;;;;;;27.40;17.40;;;8.40;93.20;;;;;;5064114;28;20028;-45
2023/04/29 05:09:34;;;;;;;28.65;18.08;;;8.40;93.20;;;;;;5055096;28;20051;-43
2023/04/29 05:12:03;;;;;;;27.73;18.17;;;8.40;92.90;;;;;;5060273;28;20032;-43
2023/04/29 05:14:29;;;;;;;22.95;16.38;;;8.40;92.80;;;;;;5035908;28;20021;-43
2023/04/29 05:17:01;;;;;;;21.33;15.82;;;8.40;92.50;;;;;;5065484;28;20637;-44
2023/04/29 05:19:29;;;;;;;27.70;16.92;;;8.40;92.50;;;;;;5064070;28;20104;-46
2023/04/29 05:21:58;;;;;;;25.30;16.73;;;8.40;92.30;;;;;;5035963;28;20458;-45
2023/04/29 05:24:25;;;;;;;23.48;15.73;;;8.40;92.20;;;;;;5034357;28;20481;-43
2023/04/29 05:26:53;;;;;;;23.40;16.38;;;8.40;92.10;;;;;;5056073;28;20621;-42
2023/04/29 05:29:20;;;;;;;21.27;15.60;;;8.50;92.10;;;;;;5040263;28;20109;-47
2023/04/29 05:31:46;;;;;;;21.58;16.52;;;8.40;91.90;;;;;;5048602;28;20090;-44
2023/04/29 05:34:14;;;;;;;26.35;18.10;;;8.40;91.90;;;;;;5039680;28;20100;-42
2023/04/29 05:36:40;;;;;;;22.35;16.38;;;8.40;91.80;;;;;;5014912;28;20363;-42
2023/04/29 05:39:07;;;;;;;25.38;17.45;;;8.40;91.80;;;;;;5014658;28;20234;-43
2023/04/29 05:41:35;;;;;;;27.67;16.98;;;8.40;91.70;;;;;;5027024;28;20040;-43
2023/04/29 05:44:03;;;;;;;23.38;16.08;;;8.40;91.60;;;;;;5053806;28;20051;-46
2023/04/29 05:46:30;;;;;;;22.40;14.55;;;8.50;91.40;;;;;;5031341;28;20399;-45
2023/04/29 05:48:57;;;;;;;20.70;15.77;;;8.50;91.30;;;;;;5037778;28;20033;-42
2023/04/29 05:51:23;;;;;;;27.42;17.05;;;8.50;91.30;;;;;;5043156;28;20021;-44
2023/04/29 05:53:51;;;;;;;23.33;16.15;;;8.50;91.30;;;;;;5056217;28;20455;-45
2023/04/29 05:56:18;;;;;;;26.15;15.82;;;8.60;91.40;;;;;;5071687;28;20407;-42
2023/04/29 05:58:46;;;;;;;28.00;15.43;;;8.60;91.40;;;;;;5062493;28;20042;-42
2023/04/29 06:01:12;;;;;;;27.48;14.65;;;8.70;91.40;;;;;;5057437;28;20032;-43
2023/04/29 06:03:41;;;;;;;18.23;14.23;;;8.70;91.20;;;;;;5056010;28;20036;-44
2023/04/29 06:06:10;;;;;;;20.90;15.65;;;8.70;91.20;;;;;;5075013;28;20090;-42
2023/04/29 06:08:39;;;;;;;18.88;13.90;;;8.70;91.00;;;;;;5046893;28;20063;-45
2023/04/29 06:11:05;;;;;;;26.05;15.70;;;8.80;91.10;;;;;;5055699;28;20025;-42
2023/04/29 06:13:33;;;;;;;18.52;13.85;;;8.80;91.00;;;;;;5055544;28;20596;-42
2023/04/29 06:16:00;;;;;;;21.17;14.48;;;8.90;91.00;;;;;;5052864;28;20033;-44
2023/04/29 06:18:28;;;;;;;23.70;14.10;;;8.90;91.00;;;;;;5054554;28;20343;-43
2023/04/29 06:20:54;;;;;;;19.52;13.23;;;8.90;90.90;;;;;;5049224;28;20364;-42
2023/04/29 06:23:21;;;;;;;20.40;14.63;;;9.00;90.90;;;;;;5054843;28;20044;-42
2023/04/29 06:25:47;;;;;;;22.13;15.45;;;9.00;90.70;;;;;;5055105;28;20025;-42
2023/04/29 06:28:21;;;;;;;16.45;12.40;;;8.90;90.30;;;;;;5041832;28;20030;-43
2023/04/29 06:30:49;;;;;;;18.05;13.32;;;9.00;90.30;;;;;;5029737;28;20057;-41
2023/04/29 06:33:16;;;;;;;17.55;13.18;;;9.10;89.90;;;;;;5055473;28;20025;-41
2023/04/29 06:35:44;;;;;;;28.05;13.45;;;9.10;89.80;;;;;;5042320;28;20025;-42
2023/04/29 06:38:11;;;;;;;22.13;12.40;;;9.20;89.70;;;;;;5064361;28;20338;-44
2023/04/29 06:40:37;;;;;;;16.48;12.50;;;9.20;89.30;;;;;;5063857;28;20036;-41
2023/04/29 06:43:03;;;;;;;17.75;10.77;;;9.30;89.30;;;;;;5060811;28;20032;-44
2023/04/29 06:45:30;;;;;;;18.25;11.35;;;9.30;88.80;;;;;;5050243;28;20025;-43
2023/04/29 06:48:00;;;;;;;18.02;12.30;;;9.30;88.30;;;;;;5054288;28;20440;-44
2023/04/29 06:50:28;;;;;;;17.08;12.05;;;9.40;88.10;;;;;;5056096;28;20044;-43
2023/04/29 06:52:56;;;;;;;23.65;11.60;;;9.40;88.20;;;;;;5055225;28;20090;-44
2023/04/29 06:55:24;;;;;;;15.23;11.48;;;9.40;88.10;;;;;;5053675;28;20443;-42
2023/04/29 06:57:51;;;;;;;15.05;12.05;;;9.50;87.80;;;;;;5052276;28;20048;-45
2023/04/29 07:00:18;;;;;;;16.73;11.70;;;9.50;87.50;;;;;;5054181;28;20186;-44
2023/04/29 07:02:48;;;;;;;18.10;11.55;;;9.50;87.40;;;;;;5051956;28;20052;-41
2023/04/29 07:05:13;;;;;;;22.98;12.52;;;9.60;87.50;;;;;;5033004;28;20479;-42
2023/04/29 07:07:40;;;;;;;15.77;12.55;;;9.70;87.80;;;;;;5066169;28;20038;-42
2023/04/29 07:10:08;;;;;;;18.20;12.52;;;9.80;87.70;;;;;;5057435;28;20459;-44
2023/04/29 07:12:34;;;;;;;16.85;13.30;;;9.90;87.60;;;;;;5058212;28;20043;-41
2023/04/29 07:15:01;;;;;;;14.63;11.30;;;9.90;87.00;;;;;;5048088;28;20112;-44
2023/04/29 07:17:30;;;;;;;16.92;12.45;;;9.90;87.10;;;;;;5066533;28;20036;-41
2023/04/29 07:20:01;;;;;;;22.07;13.47;;;10.00;87.20;;;;;;5044053;28;20020;-42
2023/04/29 07:22:28;;;;;;;13.88;11.82;;;10.10;86.40;;;;;;5045977;28;20091;-43
2023/04/29 07:24:54;;;;;;;14.85;11.88;;;10.20;85.80;;;;;;5070923;28;20044;-44
2023/04/29 07:27:25;;;;;;;17.33;13.43;;;10.30;85.80;;;;;;5043950;28;20654;-43
2023/04/29 07:29:51;;;;;;;17.30;11.57;;;10.40;85.50;;;;;;5061944;28;20033;-43
2023/04/29 07:32:18;;;;;;;16.92;11.95;;;10.40;83.90;;;;;;5057978;28;20030;-42
2023/04/29 07:34:46;;;;;;;16.05;12.18;;;10.50;83.80;;;;;;5067928;28;20090;-44
2023/04/29 07:37:14;;;;;;;15.60;10.70;;;10.50;83.60;;;;;;5071537;28;20499;-42
2023/04/29 07:39:44;;;;;;;14.85;10.73;;;10.50;83.00;;;;;;5066631;28;20045;-42
2023/04/29 07:42:11;;;;;;;20.25;11.68;;;10.70;83.30;;;;;;5071140;28;20040;-44
2023/04/29 07:44:38;;;;;;;14.43;10.55;;;10.90;82.90;;;;;;5064478;28;20033;-42
2023/04/29 07:47:04;;;;;;;15.23;11.77;;;11.00;81.80;;;;;;5059044;28;20017;-44
2023/04/29 07:49:32;;;;;;;15.98;11.27;;;11.10;82.30;;;;;;5040460;28;20450;-43
2023/04/29 07:52:01;;;;;;;14.63;11.70;;;11.60;81.30;;;;;;5061808;28;20036;-43
2023/04/29 07:54:28;;;;;;;15.68;11.85;;;11.90;79.70;;;;;;5068039;28;20135;-43
2023/04/29 07:57:02;;;;;;;16.70;10.95;;;12.20;76.80;;;;;;5064620;28;20028;-45
2023/04/29 07:59:28;;;;;;;13.18;9.88;;;12.80;75.90;;;;;;5050243;28;20075;-43
2023/04/29 08:01:54;;;;;;;11.48;9.27;;;12.90;73.80;;;;;;5064917;28;20032;-43
2023/04/29 08:04:23;;;;;;;14.57;10.02;;;13.10;72.60;;;;;;5052508;28;20043;-46
2023/04/29 08:06:52;;;;;;;13.90;9.45;;;13.20;72.70;;;;;;5054980;28;20122;-44
2023/04/29 08:09:19;;;;;;;14.75;9.80;;;13.50;74.00;;;;;;5049803;28;20075;-46
2023/04/29 08:11:48;;;;;;;10.70;9.07;;;13.90;70.90;;;;;;5049293;28;20033;-47
2023/04/29 08:14:15;;;;;;;11.27;8.55;;;14.00;70.00;;;;;;5029505;28;20517;-46
2023/04/29 08:16:43;;;;;;;10.43;9.25;;;13.60;69.10;;;;;;5051427;28;20419;-43
2023/04/29 08:19:10;;;;;;;14.65;9.27;;;12.90;71.50;;;;;;5046686;28;20364;-44
2023/04/29 08:21:37;;;;;;;13.65;8.25;;;12.70;74.30;;;;;;5069411;28;20028;-43
2023/04/29 08:24:04;;;;;;;15.50;8.40;;;12.90;74.80;;;;;;5068755;28;20029;-44
2023/04/29 08:26:32;;;;;;;10.00;7.80;;;13.20;73.30;;;;;;5059578;28;20111;-45
2023/04/29 08:29:00;;;;;;;10.85;7.65;;;13.40;70.90;;;;;;5054022;28;20033;-46
2023/04/29 08:31:27;;;;;;;8.57;6.13;;;13.40;68.90;;;;;;5054932;28;20021;-46
2023/04/29 08:33:53;;;;;;;9.93;6.03;;;13.70;67.40;;;;;;5036792;28;20079;-44
2023/04/29 08:36:21;;;;;;;8.95;5.95;;;13.80;65.80;;;;;;5063454;28;20028;-47
2023/04/29 08:38:51;;;;;;;12.73;5.55;;;14.20;65.40;;;;;;5022401;28;20065;-45
2023/04/29 08:41:19;;;;;;;8.68;5.63;;;14.60;62.60;;;;;;5032639;28;20371;-45
2023/04/29 08:43:45;;;;;;;8.63;4.82;;;14.60;60.80;;;;;;5016226;28;20467;-46
2023/04/29 08:46:12;;;;;;;7.47;5.47;;;14.90;60.40;;;;;;5044650;28;20038;-45
2023/04/29 08:48:40;;;;;;;9.95;5.95;;;15.00;59.10;;;;;;5032159;28;20040;-44
2023/04/29 08:51:10;;;;;;;9.60;4.55;;;15.30;60.70;;;;;;5015393;28;20434;-45
2023/04/29 08:53:39;;;;;;;7.00;4.32;;;15.60;59.10;;;;;;5032756;28;20113;-45
2023/04/29 08:56:15;;;;;;;9.20;4.07;;;15.40;57.60;;;;;;5031593;28;20025;-46
2023/04/29 08:58:43;;;;;;;6.55;4.57;;;15.40;58.40;;;;;;4997777;28;20033;-44
2023/04/29 09:01:09;;;;;;;7.00;4.30;;;15.60;55.40;;;;;;5034139;28;20037;-46
2023/04/29 09:04:29;;;;;;;9.05;4.40;;;15.90;56.30;;;;;;5034849;28;20052;-45
2023/04/29 09:06:56;;;;;;;5.95;3.60;;;15.60;53.40;;;;;;4984423;28;20427;-48
2023/04/29 09:09:23;;;;;;;7.72;3.38;;;15.40;55.00;;;;;;4982949;28;20043;-47
2023/04/29 09:11:51;;;;;;;7.50;3.65;;;15.60;52.60;;;;;;4976936;28;20224;-46
2023/04/29 09:14:20;;;;;;;9.95;3.67;;;15.40;52.40;;;;;;4990990;28;20042;-45
2023/04/29 09:16:46;;;;;;;7.03;4.28;;;15.40;56.20;;;;;;4966301;28;20589;-45
2023/04/29 09:19:29;;;;;;;7.85;4.65;;;15.50;54.50;;;;;;4984989;28;20582;-45
2023/04/29 09:21:56;;;;;;;8.85;4.32;;;15.70;55.40;;;;;;4963014;28;20138;-46
2023/04/29 09:24:29;;;;;;;6.32;4.15;;;15.60;53.80;;;;;;4994002;28;20117;-46
2023/04/29 09:26:58;;;;;;;7.88;3.95;;;15.50;54.60;;;;;;4972060;28;20038;-48
2023/04/29 09:29:29;;;;;;;8.00;4.20;;;15.40;56.20;;;;;;4968184;28;20112;-47
2023/04/29 09:31:57;;;;;;;10.55;4.90;;;15.70;54.20;;;;;;4957923;28;20493;-46
2023/04/29 09:34:38;;;;;;;8.65;5.85;;;15.40;52.30;;;;;;4979079;28;20129;-45
2023/04/29 09:37:23;;;;;;;9.63;5.20;;;15.40;54.20;;;;;;4989086;28;20041;-46
2023/04/29 09:39:51;;;;;;;9.43;5.00;;;15.00;52.70;;;;;;4971037;28;20118;-46
2023/04/29 09:42:18;;;;;;;9.48;4.60;;;14.90;53.60;;;;;;5049123;28;20024;-45
2023/04/29 09:44:47;;;;;;;11.10;5.13;;;15.00;54.80;;;;;;5035864;28;20381;-46
2023/04/29 09:47:16;;;;;;;8.77;4.88;;;15.20;56.10;;;;;;5051365;28;20033;-47
2023/04/29 09:49:44;;;;;;;10.82;4.93;;;15.30;57.40;;;;;;5049852;28;20159;-47
2023/04/29 09:52:41;;;;;;;10.30;5.35;;;15.40;56.60;;;;;;5048934;28;20111;-44
2023/04/29 09:55:10;;;;;;;9.50;5.53;;;15.40;56.70;;;;;;5036237;28;20441;-45
2023/04/29 09:57:40;;;;;;;8.10;5.18;;;15.40;55.90;;;;;;5058202;28;20029;-45
2023/04/29 10:00:07;;;;;;;10.02;5.05;;;15.50;56.50;;;;;;5067625;28;20040;-47
2023/04/29 10:02:35;;;;;;;9.38;5.05;;;15.40;56.40;;;;;;5051418;28;20033;-46
2023/04/29 10:05:02;;;;;;;10.80;5.25;;;15.10;58.60;;;;;;5051766;28;20508;-45
2023/04/29 10:07:32;;;;;;;14.60;7.03;;;15.00;63.00;;;;;;5049617;28;20112;-45
2023/04/29 10:10:01;;;;;;;9.88;5.13;;;14.70;62.00;;;;;;5052030;28;20025;-45
2023/04/29 10:12:29;;;;;;;7.93;5.13;;;14.60;63.10;;;;;;5034461;28;20033;-44
2023/04/29 10:15:21;;;;;;;8.77;4.38;;;14.50;61.00;;;;;;5025501;28;20086;-44
2023/04/29 10:18:11;;;;;;;7.07;3.70;;;14.50;61.20;;;;;;5070403;28;20039;-45
2023/04/29 10:20:42;;;;;;;10.13;4.55;;;14.60;59.50;;;;;;5046584;28;20037;-46
2023/04/29 10:23:13;;;;;;;9.32;3.95;;;14.60;62.10;;;;;;5026130;28;20025;-46
2023/04/29 10:25:54;;;;;;;11.20;4.68;;;14.70;61.70;;;;;;5050385;28;20079;-46
2023/04/29 10:28:34;;;;;;;9.10;4.15;;;14.80;61.70;;;;;;5057753;28;20385;-45
2023/04/29 10:31:05;;;;;;;8.90;5.00;;;14.60;61.70;;;;;;5031720;28;20518;-49
2023/04/29 10:33:49;;;;;;;9.02;4.25;;;14.50;64.60;;;;;;5019508;28;20041;-45
2023/04/29 10:36:15;;;;;;;9.35;3.47;;;14.90;61.10;;;;;;5019513;28;20033;-47
2023/04/29 10:39:05;;;;;;;8.45;4.28;;;15.00;61.70;;;;;;5058005;28;20024;-46
2023/04/29 10:41:45;;;;;;;9.48;3.53;;;14.90;60.30;;;;;;5047057;28;20144;-45
2023/04/29 10:44:13;;;;;;;11.32;4.18;;;15.20;60.20;;;;;;5038268;28;20033;-47
2023/04/29 10:46:40;;;;;;;6.90;3.63;;;15.10;60.20;;;;;;5032758;28;20048;-45
2023/04/29 10:49:09;;;;;;;6.70;3.10;;;15.20;59.10;;;;;;5054409;28;20017;-46
2023/04/29 10:52:02;;;;;;;7.28;3.55;;;15.30;59.70;;;;;;5025392;28;20033;-46
2023/04/29 10:54:27;;;;;;;6.53;3.20;;;15.20;60.00;;;;;;5020504;28;20072;-45
2023/04/29 10:56:54;;;;;;;8.13;3.35;;;15.10;59.20;;;;;;5057579;28;20422;-45
2023/04/29 10:59:32;;;;;;;8.70;3.30;;;15.00;60.10;;;;;;5074515;28;20389;-46
2023/04/29 11:02:00;;;;;;;7.90;3.70;;;14.90;60.50;;;;;;5060399;28;20043;-47
2023/04/29 11:04:30;;;;;;;7.90;2.85;;;14.90;62.10;;;;;;5035123;28;20044;-45
2023/04/29 11:07:01;;;;;;;4.90;2.50;;;14.60;62.10;;;;;;5034980;28;20084;-51
2023/04/29 11:09:34;;;;;;;4.95;2.30;;;14.50;58.80;;;;;;5044557;28;20107;-46
2023/04/29 11:12:22;;;;;;;5.18;2.60;;;14.60;56.60;;;;;;5034204;28;20025;-45
2023/04/29 11:14:51;;;;;;;5.65;2.22;;;14.40;57.50;;;;;;5051918;28;20037;-47
2023/04/29 11:17:22;;;;;;;6.43;2.60;;;14.10;58.70;;;;;;5051710;28;20029;-49
2023/04/29 11:20:12;;;;;;;7.75;2.75;;;14.20;58.00;;;;;;5050917;28;20378;-48
2023/04/29 11:22:52;;;;;;;5.20;2.80;;;14.30;60.40;;;;;;5057376;28;20131;-50
2023/04/29 11:25:18;;;;;;;7.38;2.92;;;14.40;57.90;;;;;;5044354;28;20041;-45
2023/04/29 11:27:47;;;;;;;6.57;2.80;;;14.20;58.60;;;;;;5054762;28;20024;-46
2023/04/29 11:30:15;;;;;;;;;;;14.40;60.00;;;;;;5047987;28;20028;-52
2023/04/29 11:32:44;;;;;;;9.27;2.75;;;14.40;53.90;;;;;;5016365;28;19916;-46
2023/04/29 11:35:17;;;;;;;6.13;3.13;;;14.60;56.80;;;;;;5037437;28;20035;-45
2023/04/29 11:37:46;;;;;;;3.70;2.17;;;14.90;59.60;;;;;;5044431;28;20163;-45
2023/04/29 11:40:13;;;;;;;4.85;2.00;;;14.70;51.30;;;;;;5015911;28;20076;-45
2023/04/29 11:42:50;;;;;;;4.93;2.70;;;14.60;53.30;;;;;;5035349;28;20458;-48
2023/04/29 11:45:18;;;;;;;4.72;2.00;;;14.40;54.30;;;;;;5050602;28;20437;-46
2023/04/29 11:47:45;;;;;;;4.47;1.63;;;14.20;55.10;;;;;;5047602;28;20446;-47
2023/04/29 11:50:15;;;;;;;6.03;2.47;;;14.10;52.70;;;;;;5058914;28;20025;-47
2023/04/29 11:52:42;;;;;;;5.22;2.60;;;14.00;51.90;;;;;;5051046;28;20025;-45
2023/04/29 11:55:13;;;;;;;5.28;2.28;;;14.20;52.80;;;;;;5019843;28;20051;-46
2023/04/29 11:57:39;;;;;;;6.15;2.72;;;14.30;52.60;;;;;;5036472;28;20508;-47
2023/04/29 12:00:11;;;;;;;3.47;2.42;;;14.40;53.20;;;;;;5053686;28;20063;-46
2023/04/29 12:02:45;;;;;;;4.35;1.95;;;14.40;51.00;;;;;;5017384;28;20037;-45
2023/04/29 12:05:14;;;;;;;3.63;1.85;;;14.20;52.70;;;;;;5018936;28;20449;-44
2023/04/29 12:07:45;;;;;;;5.45;1.95;;;14.40;53.10;;;;;;5033674;28;20041;-47
2023/04/29 12:10:12;;;;;;;3.72;1.77;;;14.50;52.80;;;;;;5021541;28;20036;-45
2023/04/29 12:12:42;;;;;;;2.78;1.38;;;14.20;51.30;;;;;;5041841;28;20063;-45
2023/04/29 12:15:09;;;;;;;;;;;14.10;50.50;;;;;;5027132;28;20041;-45
2023/04/29 12:17:37;;;;;;;3.47;1.42;;;14.20;51.70;;;;;;5029906;28;19909;-44
2023/04/29 12:20:05;;;;;;;4.78;1.75;;;14.00;53.20;;;;;;5021307;28;20041;-44
2023/04/29 12:22:32;;;;;;;8.80;2.47;;;13.80;50.80;;;;;;5020943;28;20067;-45
2023/04/29 12:25:06;;;;;;;5.10;2.20;;;13.60;56.00;;;;;;5010698;28;20040;-45
2023/04/29 12:27:36;;;;;;;4.90;2.30;;;13.50;58.90;;;;;;5047526;28;20375;-44
2023/04/29 12:30:11;;;;;;;5.20;2.40;;;13.60;56.30;;;;;;5051742;28;20044;-45
2023/04/29 12:32:38;;;;;;;5.93;2.60;;;13.30;57.70;;;;;;5007994;28;20505;-44
2023/04/29 12:35:15;;;;;;;9.20;2.95;;;13.30;60.50;;;;;;5033481;28;20034;-46
2023/04/29 12:37:42;;;;;;;7.32;3.28;;;13.00;59.20;;;;;;5033694;28;20057;-45
2023/04/29 12:40:15;;;;;;;8.25;3.80;;;13.20;61.30;;;;;;5032972;28;20112;-44
2023/04/29 12:42:44;;;;;;;10.02;4.40;;;13.10;62.00;;;;;;5016081;28;20091;-47
2023/04/29 12:45:31;;;;;;;10.80;4.53;;;13.00;63.10;;;;;;5016200;28;20527;-44
2023/04/29 12:48:08;;;;;;;11.75;4.47;;;13.00;65.80;;;;;;5012454;28;20344;-47
2023/04/29 12:50:36;;;;;;;7.90;4.40;;;12.90;66.40;;;;;;5046679;28;20416;-45
2023/04/29 12:53:12;;;;;;;8.90;5.18;;;13.00;66.80;;;;;;5037754;28;20366;-45
2023/04/29 12:55:39;;;;;;;7.35;4.07;;;13.20;68.80;;;;;;5032442;28;20087;-45